sensor_id;sensor_type;location;lat;lon;timestamp;pressure;altitude;pressure_sealevel;temperature
61189;BMP280;47054;39.716;2.904;2023-01-15T00:01:30;100713.94;;;17.40
61189;BMP280;47054;39.716;2.904;2023-01-15T00:04:18;100706.91;;;17.32
61189;BMP280;47054;39.716;2.904;2023-01-15T00:07:02;100710.41;;;17.36
61189;BMP280;47054;39.716;2.904;2023-01-15T00:09:49;100712.38;;;17.39
61189;BMP280;47054;39.716;2.904;2023-01-15T00:12:33;100698.97;;;17.39
61189;BMP280;47054;39.716;2.904;2023-01-15T00:15:17;100701.66;;;17.39
61189;BMP280;47054;39.716;2.904;2023-01-15T00:18:03;100670.44;;;17.27
61189;BMP280;47054;39.716;2.904;2023-01-15T00:20:47;100691.28;;;17.37
61189;BMP280;47054;39.716;2.904;2023-01-15T00:23:32;100688.63;;;17.37
61189;BMP280;47054;39.716;2.904;2023-01-15T00:26:37;100687.06;;;17.36
61189;BMP280;47054;39.716;2.904;2023-01-15T00:29:40;100676.72;;;17.35
61189;BMP280;47054;39.716;2.904;2023-01-15T00:32:25;100677.50;;;17.35
61189;BMP280;47054;39.716;2.904;2023-01-15T00:35:15;100675.56;;;17.36
61189;BMP280;47054;39.716;2.904;2023-01-15T00:38:00;100674.81;;;17.35
61189;BMP280;47054;39.716;2.904;2023-01-15T00:40:45;100661.41;;;17.35
61189;BMP280;47054;39.716;2.904;2023-01-15T00:43:36;100656.38;;;17.34
61189;BMP280;47054;39.716;2.904;2023-01-15T00:46:20;100651.81;;;17.34
61189;BMP280;47054;39.716;2.904;2023-01-15T00:49:05;100623.22;;;17.23
61189;BMP280;47054;39.716;2.904;2023-01-15T00:51:50;100644.56;;;17.35
61189;BMP280;47054;39.716;2.904;2023-01-15T00:54:34;100647.22;;;17.35
61189;BMP280;47054;39.716;2.904;2023-01-15T00:57:19;100639.19;;;17.35
61189;BMP280;47054;39.716;2.904;2023-01-15T01:00:04;100634.94;;;17.34
61189;BMP280;47054;39.716;2.904;2023-01-15T01:02:50;100631.47;;;17.33
61189;BMP280;47054;39.716;2.904;2023-01-15T01:05:34;100622.91;;;17.24
61189;BMP280;47054;39.716;2.904;2023-01-15T01:08:19;100636.06;;;17.33
61189;BMP280;47054;39.716;2.904;2023-01-15T01:11:06;100624.22;;;17.34
61189;BMP280;47054;39.716;2.904;2023-01-15T01:13:53;100623.84;;;17.32
61189;BMP280;47054;39.716;2.904;2023-01-15T01:16:39;100617.69;;;17.31
61189;BMP280;47054;39.716;2.904;2023-01-15T01:19:25;100625.72;;;17.31
61189;BMP280;47054;39.716;2.904;2023-01-15T01:22:10;100631.88;;;17.32
61189;BMP280;47054;39.716;2.904;2023-01-15T01:24:54;100629.53;;;17.30
61189;BMP280;47054;39.716;2.904;2023-01-15T01:27:43;100606.75;;;17.21
61189;BMP280;47054;39.716;2.904;2023-01-15T01:30:28;100614.56;;;17.29
61189;BMP280;47054;39.716;2.904;2023-01-15T01:33:12;100608.09;;;17.30
61189;BMP280;47054;39.716;2.904;2023-01-15T01:35:57;100613.44;;;17.30
61189;BMP280;47054;39.716;2.904;2023-01-15T01:38:41;100605.72;;;17.29
61189;BMP280;47054;39.716;2.904;2023-01-15T01:41:28;100607.28;;;17.30
61189;BMP280;47054;39.716;2.904;2023-01-15T01:47:20;100603.84;;;17.29
61189;BMP280;47054;39.716;2.904;2023-01-15T01:50:09;100599.63;;;17.28
61189;BMP280;47054;39.716;2.904;2023-01-15T01:53:03;100593.47;;;17.28
61189;BMP280;47054;39.716;2.904;2023-01-15T01:55:50;100600.75;;;17.27
61189;BMP280;47054;39.716;2.904;2023-01-15T01:58:36;100583.75;;;17.20
61189;BMP280;47054;39.716;2.904;2023-01-15T02:01:23;100591.56;;;17.28
61189;BMP280;47054;39.716;2.904;2023-01-15T02:04:10;100586.59;;;17.27
61189;BMP280;47054;39.716;2.904;2023-01-15T02:06:55;100588.47;;;17.26
61189;BMP280;47054;39.716;2.904;2023-01-15T02:09:42;100592.72;;;17.27
61189;BMP280;47054;39.716;2.904;2023-01-15T02:12:32;100575.31;;;17.18
61189;BMP280;47054;39.716;2.904;2023-01-15T02:16:32;100579.66;;;17.26
61189;BMP280;47054;39.716;2.904;2023-01-15T02:27:37;100562.38;;;17.23
61189;BMP280;47054;39.716;2.904;2023-01-15T02:30:30;100566.63;;;17.24
61189;BMP280;47054;39.716;2.904;2023-01-15T02:33:22;100563.16;;;17.24
61189;BMP280;47054;39.716;2.904;2023-01-15T02:36:12;100556.25;;;17.23
61189;BMP280;47054;39.716;2.904;2023-01-15T02:39:02;100548.13;;;17.19
61189;BMP280;47054;39.716;2.904;2023-01-15T02:41:50;100549.72;;;17.20
61189;BMP280;47054;39.716;2.904;2023-01-15T02:44:41;100555.13;;;17.24
61189;BMP280;47054;39.716;2.904;2023-01-15T02:47:30;100557.25;;;17.15
61189;BMP280;47054;39.716;2.904;2023-01-15T02:50:38;100551.94;;;17.18
61189;BMP280;47054;39.716;2.904;2023-01-15T02:53:27;100541.94;;;17.15
61189;BMP280;47054;39.716;2.904;2023-01-15T02:56:19;100540.47;;;17.18
61189;BMP280;47054;39.716;2.904;2023-01-15T02:59:12;100529.38;;;17.19
61189;BMP280;47054;39.716;2.904;2023-01-15T03:02:02;100531.28;;;17.19
61189;BMP280;47054;39.716;2.904;2023-01-15T03:05:02;100525.59;;;17.20
61189;BMP280;47054;39.716;2.904;2023-01-15T03:07:52;100525.91;;;17.19
61189;BMP280;47054;39.716;2.904;2023-01-15T03:16:55;100519.03;;;17.18
61189;BMP280;47054;39.716;2.904;2023-01-15T03:20:05;100515.19;;;17.19
61189;BMP280;47054;39.716;2.904;2023-01-15T03:22:57;100502.19;;;17.17
61189;BMP280;47054;39.716;2.904;2023-01-15T03:25:49;100503.38;;;17.20
61189;BMP280;47054;39.716;2.904;2023-01-15T03:28:37;100496.44;;;17.19
61189;BMP280;47054;39.716;2.904;2023-01-15T03:31:23;100491.88;;;17.19
61189;BMP280;47054;39.716;2.904;2023-01-15T03:34:07;100477.50;;;17.08
61189;BMP280;47054;39.716;2.904;2023-01-15T03:36:52;100492.97;;;17.18
61189;BMP280;47054;39.716;2.904;2023-01-15T03:39:38;100494.56;;;17.19
61189;BMP280;47054;39.716;2.904;2023-01-15T03:45:33;100503.72;;;17.18
61189;BMP280;47054;39.716;2.904;2023-01-15T03:48:40;100497.22;;;17.19
61189;BMP280;47054;39.716;2.904;2023-01-15T03:51:38;100488.41;;;17.19
61189;BMP280;47054;39.716;2.904;2023-01-15T03:54:47;100484.56;;;17.16
61189;BMP280;47054;39.716;2.904;2023-01-15T03:57:49;100478.84;;;17.18
61189;BMP280;47054;39.716;2.904;2023-01-15T04:00:38;100480.31;;;17.15
61189;BMP280;47054;39.716;2.904;2023-01-15T04:03:27;100478.41;;;17.16
61189;BMP280;47054;39.716;2.904;2023-01-15T04:06:13;100458.69;;;17.04
61189;BMP280;47054;39.716;2.904;2023-01-15T04:08:58;100464.19;;;17.12
61189;BMP280;47054;39.716;2.904;2023-01-15T04:11:46;100472.28;;;17.15
61189;BMP280;47054;39.716;2.904;2023-01-15T04:14:31;100470.38;;;17.16
61189;BMP280;47054;39.716;2.904;2023-01-15T04:17:23;100462.59;;;17.07
61189;BMP280;47054;39.716;2.904;2023-01-15T04:20:09;100463.78;;;17.09
61189;BMP280;47054;39.716;2.904;2023-01-15T04:22:58;100461.88;;;17.10
61189;BMP280;47054;39.716;2.904;2023-01-15T04:25:42;100460.75;;;17.11
61189;BMP280;47054;39.716;2.904;2023-01-15T04:28:28;100464.97;;;17.12
61189;BMP280;47054;39.716;2.904;2023-01-15T04:31:12;100463.06;;;17.13
61189;BMP280;47054;39.716;2.904;2023-01-15T04:33:57;100460.03;;;17.14
61189;BMP280;47054;39.716;2.904;2023-01-15T04:36:42;100461.16;;;17.13
61189;BMP280;47054;39.716;2.904;2023-01-15T04:39:32;100454.25;;;17.12
61189;BMP280;47054;39.716;2.904;2023-01-15T04:42:17;100453.09;;;17.13
61189;BMP280;47054;39.716;2.904;2023-01-15T04:45:20;100447.00;;;17.13
61189;BMP280;47054;39.716;2.904;2023-01-15T04:48:05;100438.19;;;17.12
61189;BMP280;47054;39.716;2.904;2023-01-15T04:50:50;100439.72;;;17.13
61189;BMP280;47054;39.716;2.904;2023-01-15T04:53:35;100430.94;;;17.13
61189;BMP280;47054;39.716;2.904;2023-01-15T04:56:19;100427.88;;;17.14
61189;BMP280;47054;39.716;2.904;2023-01-15T04:59:04;100426.31;;;17.13
61189;BMP280;47054;39.716;2.904;2023-01-15T05:01:49;100428.25;;;17.13
61189;BMP280;47054;39.716;2.904;2023-01-15T05:04:34;100424.78;;;17.12
61189;BMP280;47054;39.716;2.904;2023-01-15T05:07:19;100429.00;;;17.13
61189;BMP280;47054;39.716;2.904;2023-01-15T05:10:04;100422.88;;;17.13
61189;BMP280;47054;39.716;2.904;2023-01-15T05:12:49;100430.56;;;17.14
61189;BMP280;47054;39.716;2.904;2023-01-15T05:15:33;100423.63;;;17.13
61189;BMP280;47054;39.716;2.904;2023-01-15T05:18:18;100424.00;;;17.12
61189;BMP280;47054;39.716;2.904;2023-01-15T05:21:03;100422.09;;;17.12
61189;BMP280;47054;39.716;2.904;2023-01-15T05:23:50;100422.09;;;17.12
61189;BMP280;47054;39.716;2.904;2023-01-15T05:26:35;100422.88;;;17.13
61189;BMP280;47054;39.716;2.904;2023-01-15T05:29:20;100420.19;;;17.13
61189;BMP280;47054;39.716;2.904;2023-01-15T05:32:05;100414.75;;;17.09
61189;BMP280;47054;39.716;2.904;2023-01-15T05:34:50;100424.00;;;17.12
61189;BMP280;47054;39.716;2.904;2023-01-15T05:37:34;100434.72;;;17.12
61189;BMP280;47054;39.716;2.904;2023-01-15T05:40:19;100425.16;;;17.11
61189;BMP280;47054;39.716;2.904;2023-01-15T05:43:03;100431.28;;;17.11
61189;BMP280;47054;39.716;2.904;2023-01-15T05:45:48;100420.56;;;17.11
61189;BMP280;47054;39.716;2.904;2023-01-15T05:48:32;100424.00;;;17.12
61189;BMP280;47054;39.716;2.904;2023-01-15T05:51:17;100417.09;;;17.11
61189;BMP280;47054;39.716;2.904;2023-01-15T05:54:04;100415.22;;;17.11
61189;BMP280;47054;39.716;2.904;2023-01-15T05:56:49;100420.56;;;17.11
61189;BMP280;47054;39.716;2.904;2023-01-15T05:59:34;100431.28;;;17.11
61189;BMP280;47054;39.716;2.904;2023-01-15T06:02:19;100427.03;;;17.10
61189;BMP280;47054;39.716;2.904;2023-01-15T06:05:04;100430.84;;;17.09
61189;BMP280;47054;39.716;2.904;2023-01-15T06:07:49;100429.69;;;17.06
61189;BMP280;47054;39.716;2.904;2023-01-15T06:10:36;100418.03;;;16.99
61189;BMP280;47054;39.716;2.904;2023-01-15T06:13:20;100435.09;;;17.10
61189;BMP280;47054;39.716;2.904;2023-01-15T06:16:06;100436.19;;;17.09
61189;BMP280;47054;39.716;2.904;2023-01-15T06:18:51;100448.03;;;17.08
61189;BMP280;47054;39.716;2.904;2023-01-15T06:21:36;100442.34;;;17.09
61189;BMP280;47054;39.716;2.904;2023-01-15T06:24:20;100446.91;;;17.09
61189;BMP280;47054;39.716;2.904;2023-01-15T06:27:05;100429.28;;;17.08
61189;BMP280;47054;39.716;2.904;2023-01-15T06:29:49;100431.97;;;17.08
61189;BMP280;47054;39.716;2.904;2023-01-15T06:32:34;100433.47;;;17.05
61189;BMP280;47054;39.716;2.904;2023-01-15T06:35:18;100433.53;;;17.09
61189;BMP280;47054;39.716;2.904;2023-01-15T06:38:03;100431.97;;;17.08
61189;BMP280;47054;39.716;2.904;2023-01-15T06:40:47;100428.53;;;17.07
61189;BMP280;47054;39.716;2.904;2023-01-15T06:43:32;100418.97;;;17.06
61189;BMP280;47054;39.716;2.904;2023-01-15T06:46:43;100427.78;;;17.07
61189;BMP280;47054;39.716;2.904;2023-01-15T06:50:05;100425.44;;;17.05
61189;BMP280;47054;39.716;2.904;2023-01-15T06:52:50;100424.66;;;17.05
61189;BMP280;47054;39.716;2.904;2023-01-15T06:55:35;100425.44;;;17.05
61189;BMP280;47054;39.716;2.904;2023-01-15T06:58:19;100419.28;;;17.05
61189;BMP280;47054;39.716;2.904;2023-01-15T07:01:12;100423.53;;;17.06
61189;BMP280;47054;39.716;2.904;2023-01-15T07:03:57;100421.19;;;17.04
61189;BMP280;47054;39.716;2.904;2023-01-15T07:06:41;100432.69;;;17.05
61189;BMP280;47054;39.716;2.904;2023-01-15T07:09:26;100435.03;;;17.06
61189;BMP280;47054;39.716;2.904;2023-01-15T07:12:10;100429.69;;;17.06
61189;BMP280;47054;39.716;2.904;2023-01-15T07:14:55;100430.00;;;17.05
61189;BMP280;47054;39.716;2.904;2023-01-15T07:17:40;100429.22;;;17.04
61189;BMP280;47054;39.716;2.904;2023-01-15T07:20:25;100429.22;;;17.04
61189;BMP280;47054;39.716;2.904;2023-01-15T07:23:09;100425.78;;;17.04
61189;BMP280;47054;39.716;2.904;2023-01-15T07:25:54;100432.69;;;17.05
61189;BMP280;47054;39.716;2.904;2023-01-15T07:28:39;100431.91;;;17.04
61189;BMP280;47054;39.716;2.904;2023-01-15T07:31:23;100422.34;;;17.03
61189;BMP280;47054;39.716;2.904;2023-01-15T07:34:08;100426.56;;;17.04
61189;BMP280;47054;39.716;2.904;2023-01-15T07:36:52;100423.88;;;17.04
61189;BMP280;47054;39.716;2.904;2023-01-15T07:39:37;100421.19;;;17.04
61189;BMP280;47054;39.716;2.904;2023-01-15T07:42:22;100423.13;;;17.04
61189;BMP280;47054;39.716;2.904;2023-01-15T07:45:25;100421.56;;;17.03
61189;BMP280;47054;39.716;2.904;2023-01-15T07:48:28;100432.28;;;17.03
61189;BMP280;47054;39.716;2.904;2023-01-15T07:51:31;100421.91;;;17.01
61189;BMP280;47054;39.716;2.904;2023-01-15T07:54:16;100426.16;;;17.02
61189;BMP280;47054;39.716;2.904;2023-01-15T07:57:01;100427.28;;;17.01
61189;BMP280;47054;39.716;2.904;2023-01-15T07:59:46;100423.47;;;17.02
61189;BMP280;47054;39.716;2.904;2023-01-15T08:02:30;100426.16;;;17.02
61189;BMP280;47054;39.716;2.904;2023-01-15T08:05:16;100425.78;;;17.04
61189;BMP280;47054;39.716;2.904;2023-01-15T08:08:00;100421.56;;;17.03
61189;BMP280;47054;39.716;2.904;2023-01-15T08:10:45;100426.91;;;17.03
61189;BMP280;47054;39.716;2.904;2023-01-15T08:13:48;100425.03;;;17.03
61189;BMP280;47054;39.716;2.904;2023-01-15T08:16:51;100422.69;;;17.02
61189;BMP280;47054;39.716;2.904;2023-01-15T08:19:36;100413.38;;;16.92
61189;BMP280;47054;39.716;2.904;2023-01-15T08:22:20;100424.22;;;17.03
61189;BMP280;47054;39.716;2.904;2023-01-15T08:25:09;100432.28;;;17.03
61189;BMP280;47054;39.716;2.904;2023-01-15T08:27:54;100436.09;;;17.02
61189;BMP280;47054;39.716;2.904;2023-01-15T08:30:38;100433.84;;;17.04
61189;BMP280;47054;39.716;2.904;2023-01-15T08:33:23;100433.84;;;17.04
61189;BMP280;47054;39.716;2.904;2023-01-15T08:36:07;100429.59;;;17.03
61189;BMP280;47054;39.716;2.904;2023-01-15T08:38:52;100425.78;;;17.04
61189;BMP280;47054;39.716;2.904;2023-01-15T08:41:37;100420.81;;;17.02
61189;BMP280;47054;39.716;2.904;2023-01-15T08:44:22;100416.97;;;17.03
61189;BMP280;47054;39.716;2.904;2023-01-15T08:47:07;100412.75;;;17.02
61189;BMP280;47054;39.716;2.904;2023-01-15T08:49:51;100418.88;;;17.03
61189;BMP280;47054;39.716;2.904;2023-01-15T08:52:36;100424.22;;;17.03
61189;BMP280;47054;39.716;2.904;2023-01-15T08:55:24;100424.22;;;17.03
61189;BMP280;47054;39.716;2.904;2023-01-15T08:58:08;100424.22;;;17.03
61189;BMP280;47054;39.716;2.904;2023-01-15T09:00:53;100425.03;;;17.03
61189;BMP280;47054;39.716;2.904;2023-01-15T09:03:38;100429.59;;;17.03
61189;BMP280;47054;39.716;2.904;2023-01-15T09:06:22;100437.25;;;17.04
61189;BMP280;47054;39.716;2.904;2023-01-15T09:09:07;100440.72;;;17.05
61189;BMP280;47054;39.716;2.904;2023-01-15T09:11:52;100423.41;;;16.99
61189;BMP280;47054;39.716;2.904;2023-01-15T09:14:37;100441.09;;;17.03
61189;BMP280;47054;39.716;2.904;2023-01-15T09:17:21;100439.19;;;17.04
61189;BMP280;47054;39.716;2.904;2023-01-15T09:20:09;100436.16;;;17.05
61189;BMP280;47054;39.716;2.904;2023-01-15T09:22:54;100430.00;;;17.05
61189;BMP280;47054;39.716;2.904;2023-01-15T09:25:38;100416.63;;;17.05
61189;BMP280;47054;39.716;2.904;2023-01-15T09:28:24;100419.28;;;17.05
61189;BMP280;47054;39.716;2.904;2023-01-15T09:31:08;100428.88;;;17.06
61189;BMP280;47054;39.716;2.904;2023-01-15T09:33:53;100426.56;;;17.04
61189;BMP280;47054;39.716;2.904;2023-01-15T09:36:38;100441.50;;;17.05
61189;BMP280;47054;39.716;2.904;2023-01-15T09:39:23;100423.16;;;17.07
61189;BMP280;47054;39.716;2.904;2023-01-15T09:43:03;100442.28;;;17.06
61189;BMP280;47054;39.716;2.904;2023-01-15T09:46:10;100445.75;;;17.06
61189;BMP280;47054;39.716;2.904;2023-01-15T09:49:14;100440.72;;;17.05
61189;BMP280;47054;39.716;2.904;2023-01-15T09:52:04;100451.44;;;17.05
61189;BMP280;47054;39.716;2.904;2023-01-15T09:58:03;100448.72;;;17.01
61189;BMP280;47054;39.716;2.904;2023-01-15T10:00:50;100447.66;;;17.06
61189;BMP280;47054;39.716;2.904;2023-01-15T10:03:42;100448.75;;;17.05
61189;BMP280;47054;39.716;2.904;2023-01-15T10:06:42;100451.09;;;17.06
61189;BMP280;47054;39.716;2.904;2023-01-15T10:09:33;100448.44;;;17.06
61189;BMP280;47054;39.716;2.904;2023-01-15T10:12:31;100446.13;;;17.08
61189;BMP280;47054;39.716;2.904;2023-01-15T10:18:12;100438.50;;;17.07
61189;BMP280;47054;39.716;2.904;2023-01-15T10:21:22;100436.19;;;17.09
61189;BMP280;47054;39.716;2.904;2023-01-15T10:24:22;100439.25;;;17.07
61189;BMP280;47054;39.716;2.904;2023-01-15T10:27:20;100438.09;;;17.08
61189;BMP280;47054;39.716;2.904;2023-01-15T10:33:03;100438.19;;;17.12
61189;BMP280;47054;39.716;2.904;2023-01-15T10:35:57;100441.63;;;17.13
61189;BMP280;47054;39.716;2.904;2023-01-15T10:45:31;100428.25;;;17.13
61189;BMP280;47054;39.716;2.904;2023-01-15T10:54:46;100424.06;;;17.15
61189;BMP280;47054;39.716;2.904;2023-01-15T10:57:43;100419.13;;;17.17
61189;BMP280;47054;39.716;2.904;2023-01-15T11:00:33;100419.47;;;17.16
61189;BMP280;47054;39.716;2.904;2023-01-15T11:03:21;100405.75;;;17.17
61189;BMP280;47054;39.716;2.904;2023-01-15T11:06:13;100406.84;;;17.16
61189;BMP280;47054;39.716;2.904;2023-01-15T11:08:59;100393.47;;;17.16
61189;BMP280;47054;39.716;2.904;2023-01-15T11:11:50;100396.53;;;17.18
61189;BMP280;47054;39.716;2.904;2023-01-15T11:14:44;100397.69;;;17.17
61189;BMP280;47054;39.716;2.904;2023-01-15T11:17:48;100397.69;;;17.17
61189;BMP280;47054;39.716;2.904;2023-01-15T11:20:51;100386.19;;;17.17
61189;BMP280;47054;39.716;2.904;2023-01-15T11:23:35;100379.69;;;17.18
61189;BMP280;47054;39.716;2.904;2023-01-15T11:26:29;100377.44;;;17.20
61189;BMP280;47054;39.716;2.904;2023-01-15T11:29:32;100373.97;;;17.19
61189;BMP280;47054;39.716;2.904;2023-01-15T11:32:28;100369.72;;;17.18
61189;BMP280;47054;39.716;2.904;2023-01-15T11:35:15;100363.63;;;17.18
61189;BMP280;47054;39.716;2.904;2023-01-15T11:38:13;100368.63;;;17.19
61189;BMP280;47054;39.716;2.904;2023-01-15T11:41:00;100365.88;;;17.16
61189;BMP280;47054;39.716;2.904;2023-01-15T11:43:55;100366.72;;;17.20
61189;BMP280;47054;39.716;2.904;2023-01-15T11:46:59;100365.53;;;17.17
61189;BMP280;47054;39.716;2.904;2023-01-15T11:50:15;100355.59;;;17.18
61189;BMP280;47054;39.716;2.904;2023-01-15T11:53:27;100359.00;;;17.18
61189;BMP280;47054;39.716;2.904;2023-01-15T11:56:16;100362.88;;;17.17
61189;BMP280;47054;39.716;2.904;2023-01-15T11:59:03;100355.59;;;17.18
61189;BMP280;47054;39.716;2.904;2023-01-15T12:02:05;100349.06;;;17.19
61189;BMP280;47054;39.716;2.904;2023-01-15T12:04:58;100351.75;;;17.19
61189;BMP280;47054;39.716;2.904;2023-01-15T12:07:45;100347.19;;;17.19
61189;BMP280;47054;39.716;2.904;2023-01-15T12:10:37;100327.63;;;17.19
61189;BMP280;47054;39.716;2.904;2023-01-15T12:17:03;100305.09;;;17.20
61189;BMP280;47054;39.716;2.904;2023-01-15T12:20:06;100304.69;;;17.18
61189;BMP280;47054;39.716;2.904;2023-01-15T12:23:41;100300.06;;;17.18
61189;BMP280;47054;39.716;2.904;2023-01-15T12:26:27;100303.16;;;17.17
61189;BMP280;47054;39.716;2.904;2023-01-15T12:29:37;100306.59;;;17.17
61189;BMP280;47054;39.716;2.904;2023-01-15T12:32:32;100296.22;;;17.16
61189;BMP280;47054;39.716;2.904;2023-01-15T12:35:28;100293.97;;;17.18
61189;BMP280;47054;39.716;2.904;2023-01-15T12:38:27;100286.66;;;17.18
61189;BMP280;47054;39.716;2.904;2023-01-15T12:41:37;100285.56;;;17.19
61189;BMP280;47054;39.716;2.904;2023-01-15T12:44:50;100269.84;;;17.18
61189;BMP280;47054;39.716;2.904;2023-01-15T12:48:13;100275.94;;;17.18
61189;BMP280;47054;39.716;2.904;2023-01-15T12:51:02;100274.44;;;17.17
61189;BMP280;47054;39.716;2.904;2023-01-15T12:54:02;100265.22;;;17.18
61189;BMP280;47054;39.716;2.904;2023-01-15T12:57:22;100261.06;;;17.17
61189;BMP280;47054;39.716;2.904;2023-01-15T13:00:24;100244.03;;;17.06
61189;BMP280;47054;39.716;2.904;2023-01-15T13:03:23;100259.13;;;17.18
61189;BMP280;47054;39.716;2.904;2023-01-15T13:06:10;100257.59;;;17.17
61189;BMP280;47054;39.716;2.904;2023-01-15T13:09:13;100257.19;;;17.18
61189;BMP280;47054;39.716;2.904;2023-01-15T13:11:59;100245.72;;;17.18
61189;BMP280;47054;39.716;2.904;2023-01-15T13:14:44;100250.72;;;17.19
61189;BMP280;47054;39.716;2.904;2023-01-15T13:17:49;100231.63;;;17.21
61189;BMP280;47054;39.716;2.904;2023-01-15T13:20:46;100228.16;;;17.20
61189;BMP280;47054;39.716;2.904;2023-01-15T13:32:46;100226.59;;;17.19
61189;BMP280;47054;39.716;2.904;2023-01-15T13:35:37;100225.47;;;17.20
61189;BMP280;47054;39.716;2.904;2023-01-15T13:38:26;100216.63;;;17.16
61189;BMP280;47054;39.716;2.904;2023-01-15T13:41:18;100225.47;;;17.20
61189;BMP280;47054;39.716;2.904;2023-01-15T13:44:31;100235.06;;;17.21
61189;BMP280;47054;39.716;2.904;2023-01-15T13:47:22;100227.78;;;17.22
61189;BMP280;47054;39.716;2.904;2023-01-15T13:50:18;100227.31;;;17.13
61189;BMP280;47054;39.716;2.904;2023-01-15T13:53:08;100229.25;;;17.16
61189;BMP280;47054;39.716;2.904;2023-01-15T13:56:01;100221.97;;;17.16
61189;BMP280;47054;39.716;2.904;2023-01-15T13:58:54;100220.47;;;17.19
61189;BMP280;47054;39.716;2.904;2023-01-15T14:01:39;100218.56;;;17.19
61189;BMP280;47054;39.716;2.904;2023-01-15T14:04:36;100222.81;;;17.20
61189;BMP280;47054;39.716;2.904;2023-01-15T14:29:22;100208.28;;;17.21
61189;BMP280;47054;39.716;2.904;2023-01-15T14:32:30;100215.88;;;17.19
61189;BMP280;47054;39.716;2.904;2023-01-15T14:35:21;100228.50;;;17.19
61189;BMP280;47054;39.716;2.904;2023-01-15T14:38:16;100221.69;;;17.21
61189;BMP280;47054;39.716;2.904;2023-01-15T14:41:04;100218.22;;;17.21
61189;BMP280;47054;39.716;2.904;2023-01-15T14:43:51;100222.81;;;17.20
61189;BMP280;47054;39.716;2.904;2023-01-15T14:46:36;100219.75;;;17.22
61189;BMP280;47054;39.716;2.904;2023-01-15T14:49:41;100234.69;;;17.23
61189;BMP280;47054;39.716;2.904;2023-01-15T14:52:28;100237.75;;;17.21
61189;BMP280;47054;39.716;2.904;2023-01-15T14:55:14;100240.81;;;17.23
61189;BMP280;47054;39.716;2.904;2023-01-15T14:58:05;100236.25;;;17.24
61189;BMP280;47054;39.716;2.904;2023-01-15T15:00:57;100241.59;;;17.24
61189;BMP280;47054;39.716;2.904;2023-01-15T15:03:56;100246.59;;;17.25
61189;BMP280;47054;39.716;2.904;2023-01-15T15:07:01;100256.56;;;17.25
61189;BMP280;47054;39.716;2.904;2023-01-15T15:16:11;100240.81;;;17.23
61189;BMP280;47054;39.716;2.904;2023-01-15T15:19:11;100258.47;;;17.24
61189;BMP280;47054;39.716;2.904;2023-01-15T15:21:58;100261.47;;;17.23
61189;BMP280;47054;39.716;2.904;2023-01-15T15:24:50;100251.53;;;17.23
61189;BMP280;47054;39.716;2.904;2023-01-15T15:27:37;100263.81;;;17.24
61189;BMP280;47054;39.716;2.904;2023-01-15T15:30:21;100262.66;;;17.25
61189;BMP280;47054;39.716;2.904;2023-01-15T15:33:15;100268.47;;;17.27
61189;BMP280;47054;39.716;2.904;2023-01-15T15:36:00;100266.91;;;17.26
61189;BMP280;47054;39.716;2.904;2023-01-15T15:38:57;100266.94;;;17.30
61189;BMP280;47054;39.716;2.904;2023-01-15T15:41:43;100271.88;;;17.28
61189;BMP280;47054;39.716;2.904;2023-01-15T15:44:56;100278.78;;;17.29
61189;BMP280;47054;39.716;2.904;2023-01-15T15:48:31;100263.03;;;17.24
61189;BMP280;47054;39.716;2.904;2023-01-15T15:54:26;100273.03;;;17.27
61189;BMP280;47054;39.716;2.904;2023-01-15T15:57:15;100273.81;;;17.27
61189;BMP280;47054;39.716;2.904;2023-01-15T16:00:01;100281.47;;;17.29
61189;BMP280;47054;39.716;2.904;2023-01-15T16:02:50;100270.75;;;17.29
61189;BMP280;47054;39.716;2.904;2023-01-15T16:05:35;100282.25;;;17.29
61189;BMP280;47054;39.716;2.904;2023-01-15T16:08:20;100286.47;;;17.30
61189;BMP280;47054;39.716;2.904;2023-01-15T16:11:06;100278.00;;;17.25
61189;BMP280;47054;39.716;2.904;2023-01-15T16:13:53;100293.41;;;17.31
61189;BMP280;47054;39.716;2.904;2023-01-15T16:16:39;100289.53;;;17.32
61189;BMP280;47054;39.716;2.904;2023-01-15T16:19:25;100289.16;;;17.30
61189;BMP280;47054;39.716;2.904;2023-01-15T16:22:14;100289.53;;;17.32
61189;BMP280;47054;39.716;2.904;2023-01-15T16:25:00;100291.50;;;17.32
61189;BMP280;47054;39.716;2.904;2023-01-15T16:27:45;100285.34;;;17.31
61189;BMP280;47054;39.716;2.904;2023-01-15T16:30:31;100286.84;;;17.32
61189;BMP280;47054;39.716;2.904;2023-01-15T16:33:16;100290.31;;;17.33
61189;BMP280;47054;39.716;2.904;2023-01-15T16:36:04;100296.47;;;17.33
61189;BMP280;47054;39.716;2.904;2023-01-15T16:38:50;100293.75;;;17.30
61189;BMP280;47054;39.716;2.904;2023-01-15T16:41:39;100294.56;;;17.34
61189;BMP280;47054;39.716;2.904;2023-01-15T16:44:30;100295.69;;;17.33
61189;BMP280;47054;39.716;2.904;2023-01-15T16:47:28;100300.69;;;17.34
61189;BMP280;47054;39.716;2.904;2023-01-15T16:50:34;100295.34;;;17.34
61189;BMP280;47054;39.716;2.904;2023-01-15T16:53:40;100306.06;;;17.34
61189;BMP280;47054;39.716;2.904;2023-01-15T17:02:15;100319.03;;;17.32
61189;BMP280;47054;39.716;2.904;2023-01-15T17:05:00;100321.69;;;17.32
61189;BMP280;47054;39.716;2.904;2023-01-15T17:07:57;100324.78;;;17.31
61189;BMP280;47054;39.716;2.904;2023-01-15T17:10:51;100334.75;;;17.34
61189;BMP280;47054;39.716;2.904;2023-01-15T17:13:37;100336.66;;;17.33
61189;BMP280;47054;39.716;2.904;2023-01-15T17:16:22;100337.78;;;17.32
61189;BMP280;47054;39.716;2.904;2023-01-15T17:19:09;100341.25;;;17.33
61189;BMP280;47054;39.716;2.904;2023-01-15T17:21:54;100351.97;;;17.33
61189;BMP280;47054;39.716;2.904;2023-01-15T17:24:50;100356.19;;;17.34
61189;BMP280;47054;39.716;2.904;2023-01-15T17:27:35;100357.31;;;17.33
61189;BMP280;47054;39.716;2.904;2023-01-15T17:30:19;100362.69;;;17.33
61189;BMP280;47054;39.716;2.904;2023-01-15T17:33:05;100370.72;;;17.33
61189;BMP280;47054;39.716;2.904;2023-01-15T17:35:52;100370.72;;;17.33
61189;BMP280;47054;39.716;2.904;2023-01-15T17:38:37;100369.59;;;17.34
61189;BMP280;47054;39.716;2.904;2023-01-15T17:41:22;100374.97;;;17.34